sensor_id;sensor_type;location;lat;lon;timestamp;temperature;humidity
70475;DHT22;57944;48.722;9.316;2024-01-07T14:44:49;1.70;99.90
70475;DHT22;57944;48.722;9.316;2024-01-07T14:47:20;1.60;99.90
70475;DHT22;57944;48.722;9.316;2024-01-07T14:49:53;1.10;99.90
70475;DHT22;57944;48.722;9.316;2024-01-07T14:52:24;1.00;99.90
70475;DHT22;57944;48.722;9.316;2024-01-07T14:54:54;1.00;99.90
70475;DHT22;57944;48.722;9.316;2024-01-07T14:57:25;0.90;99.90
70475;DHT22;57944;48.722;9.316;2024-01-07T14:59:56;0.80;99.90
70475;DHT22;57944;48.722;9.316;2024-01-07T15:02:26;0.70;99.90
70475;DHT22;57944;48.722;9.316;2024-01-07T15:05:00;0.70;99.90
70475;DHT22;57944;48.722;9.316;2024-01-07T15:07:37;0.50;99.90
70475;DHT22;57944;48.722;9.316;2024-01-07T15:10:18;0.40;99.90
70475;DHT22;57944;48.722;9.316;2024-01-07T15:12:49;0.50;99.90
70475;DHT22;57944;48.722;9.316;2024-01-07T15:15:28;0.50;99.90
70475;DHT22;57944;48.722;9.316;2024-01-07T15:17:59;0.50;99.90
70475;DHT22;57944;48.722;9.316;2024-01-07T15:20:32;0.50;99.90
70475;DHT22;57944;48.722;9.316;2024-01-07T15:23:03;0.50;99.90
70475;DHT22;57944;48.722;9.316;2024-01-07T15:25:33;0.50;99.90
70475;DHT22;57944;48.722;9.316;2024-01-07T15:28:04;0.50;99.90
70475;DHT22;57944;48.722;9.316;2024-01-07T15:30:35;0.50;99.90
70475;DHT22;57944;48.722;9.316;2024-01-07T15:33:05;0.50;99.90
70475;DHT22;57944;48.722;9.316;2024-01-07T15:35:38;0.50;99.90
70475;DHT22;57944;48.722;9.316;2024-01-07T15:38:09;0.50;99.90
70475;DHT22;57944;48.722;9.316;2024-01-07T15:40:39;0.40;99.90
70475;DHT22;57944;48.722;9.316;2024-01-07T15:43:09;0.30;99.90
70475;DHT22;57944;48.722;9.316;2024-01-07T15:45:40;0.20;99.90
70475;DHT22;57944;48.722;9.316;2024-01-07T15:48:11;0.30;99.90
70475;DHT22;57944;48.722;9.316;2024-01-07T15:50:44;0.30;99.90
70475;DHT22;57944;48.722;9.316;2024-01-07T15:53:14;0.30;99.90
70475;DHT22;57944;48.722;9.316;2024-01-07T15:55:45;0.30;99.90
70475;DHT22;57944;48.722;9.316;2024-01-07T15:58:15;0.20;99.90
70475;DHT22;57944;48.722;9.316;2024-01-07T16:00:46;0.20;99.90
70475;DHT22;57944;48.722;9.316;2024-01-07T16:03:17;0.30;99.90
70475;DHT22;57944;48.722;9.316;2024-01-07T16:05:50;0.30;99.90
70475;DHT22;57944;48.722;9.316;2024-01-07T16:08:20;0.20;99.90
70475;DHT22;57944;48.722;9.316;2024-01-07T16:10:53;0.20;99.90
70475;DHT22;57944;48.722;9.316;2024-01-07T16:13:23;0.20;99.90
70475;DHT22;57944;48.722;9.316;2024-01-07T16:15:54;0.10;99.90
70475;DHT22;57944;48.722;9.316;2024-01-07T16:18:24;0.00;99.90
70475;DHT22;57944;48.722;9.316;2024-01-07T16:20:57;0.00;99.90
70475;DHT22;57944;48.722;9.316;2024-01-07T16:23:27;0.00;99.90
70475;DHT22;57944;48.722;9.316;2024-01-07T16:26:00;0.00;99.90
70475;DHT22;57944;48.722;9.316;2024-01-07T16:28:30;0.00;99.90
70475;DHT22;57944;48.722;9.316;2024-01-07T16:31:00;0.10;99.90
70475;DHT22;57944;48.722;9.316;2024-01-07T16:33:32;0.10;99.90
70475;DHT22;57944;48.722;9.316;2024-01-07T16:36:09;0.00;99.90
70475;DHT22;57944;48.722;9.316;2024-01-07T16:38:41;0.00;99.90
70475;DHT22;57944;48.722;9.316;2024-01-07T16:41:11;0.00;99.90
70475;DHT22;57944;48.722;9.316;2024-01-07T16:43:42;0.00;99.90
70475;DHT22;57944;48.722;9.316;2024-01-07T16:46:16;0.10;99.90
70475;DHT22;57944;48.722;9.316;2024-01-07T16:48:46;0.00;99.90
70475;DHT22;57944;48.722;9.316;2024-01-07T16:51:22;-0.20;99.90
70475;DHT22;57944;48.722;9.316;2024-01-07T16:53:53;-0.30;99.90
70475;DHT22;57944;48.722;9.316;2024-01-07T16:56:23;-0.40;99.90
70475;DHT22;57944;48.722;9.316;2024-01-07T16:58:53;-0.40;99.90
70475;DHT22;57944;48.722;9.316;2024-01-07T17:31:38;-0.40;99.90
70475;DHT22;57944;48.722;9.316;2024-01-07T17:39:13;-0.40;99.90
70475;DHT22;57944;48.722;9.316;2024-01-07T17:41:43;-0.20;99.90
70475;DHT22;57944;48.722;9.316;2024-01-07T17:46:44;-0.30;99.90
70475;DHT22;57944;48.722;9.316;2024-01-07T17:49:14;-0.10;99.90
70475;DHT22;57944;48.722;9.316;2024-01-07T17:51:47;-0.20;99.90
70475;DHT22;57944;48.722;9.316;2024-01-07T17:54:18;-0.40;99.90
70475;DHT22;57944;48.722;9.316;2024-01-07T17:56:49;-0.20;99.90
70475;DHT22;57944;48.722;9.316;2024-01-07T17:59:20;-0.30;99.90
70475;DHT22;57944;48.722;9.316;2024-01-07T18:01:50;-0.20;99.90
70475;DHT22;57944;48.722;9.316;2024-01-07T18:04:22;-0.40;99.90
70475;DHT22;57944;48.722;9.316;2024-01-07T18:09:26;-0.50;99.90
70475;DHT22;57944;48.722;9.316;2024-01-07T18:11:56;-0.30;99.90
70475;DHT22;57944;48.722;9.316;2024-01-07T18:14:27;-0.30;99.90
70475;DHT22;57944;48.722;9.316;2024-01-07T18:16:57;-0.30;99.90
70475;DHT22;57944;48.722;9.316;2024-01-07T18:19:27;-0.30;99.90
70475;DHT22;57944;48.722;9.316;2024-01-07T18:22:00;-0.40;99.90
70475;DHT22;57944;48.722;9.316;2024-01-07T18:24:31;-0.50;99.90
70475;DHT22;57944;48.722;9.316;2024-01-07T18:27:01;-0.60;99.90
70475;DHT22;57944;48.722;9.316;2024-01-07T18:29:33;-0.60;99.90
70475;DHT22;57944;48.722;9.316;2024-01-07T18:32:04;-0.50;99.90
70475;DHT22;57944;48.722;9.316;2024-01-07T18:34:36;-0.40;99.90
70475;DHT22;57944;48.722;9.316;2024-01-07T18:37:11;-0.40;99.90
70475;DHT22;57944;48.722;9.316;2024-01-07T18:39:41;-0.40;99.90
70475;DHT22;57944;48.722;9.316;2024-01-07T18:42:11;-0.40;99.90
70475;DHT22;57944;48.722;9.316;2024-01-07T18:44:42;-0.40;99.90
70475;DHT22;57944;48.722;9.316;2024-01-07T18:47:12;-0.50;99.90
70475;DHT22;57944;48.722;9.316;2024-01-07T18:57:18;-0.40;99.90
70475;DHT22;57944;48.722;9.316;2024-01-07T18:59:48;-0.30;99.90
70475;DHT22;57944;48.722;9.316;2024-01-07T19:02:19;-0.50;99.90
70475;DHT22;57944;48.722;9.316;2024-01-07T19:07:23;-1.00;99.90
70475;DHT22;57944;48.722;9.316;2024-01-07T19:09:53;-0.50;99.90
70475;DHT22;57944;48.722;9.316;2024-01-07T19:12:23;-0.50;99.90
70475;DHT22;57944;48.722;9.316;2024-01-07T19:14:54;-0.40;99.90
70475;DHT22;57944;48.722;9.316;2024-01-07T19:17:24;-0.60;99.90
70475;DHT22;57944;48.722;9.316;2024-01-07T19:19:55;-0.60;99.90
70475;DHT22;57944;48.722;9.316;2024-01-07T19:22:29;-0.60;99.90
70475;DHT22;57944;48.722;9.316;2024-01-07T19:32:32;-0.70;99.90
70475;DHT22;57944;48.722;9.316;2024-01-07T19:35:05;-0.60;99.90
70475;DHT22;57944;48.722;9.316;2024-01-07T20:00:19;-1.20;99.90
70475;DHT22;57944;48.722;9.316;2024-01-07T22:44:28;-1.50;99.90
70475;DHT22;57944;48.722;9.316;2024-01-07T22:46:59;-1.70;99.90
70475;DHT22;57944;48.722;9.316;2024-01-07T22:49:29;-1.90;99.90
70475;DHT22;57944;48.722;9.316;2024-01-07T22:52:00;-1.80;99.90
70475;DHT22;57944;48.722;9.316;2024-01-07T22:54:33;-1.60;99.90
70475;DHT22;57944;48.722;9.316;2024-01-07T22:57:07;-2.20;99.90
70475;DHT22;57944;48.722;9.316;2024-01-07T22:59:37;-2.20;99.90
70475;DHT22;57944;48.722;9.316;2024-01-07T23:02:08;-2.10;99.90
70475;DHT22;57944;48.722;9.316;2024-01-07T23:04:38;-2.20;99.90
70475;DHT22;57944;48.722;9.316;2024-01-07T23:07:08;-2.00;99.90
70475;DHT22;57944;48.722;9.316;2024-01-07T23:09:41;-2.00;99.90
70475;DHT22;57944;48.722;9.316;2024-01-07T23:12:12;-2.00;99.90
70475;DHT22;57944;48.722;9.316;2024-01-07T23:14:42;-2.10;99.90
70475;DHT22;57944;48.722;9.316;2024-01-07T23:17:12;-2.10;99.90
70475;DHT22;57944;48.722;9.316;2024-01-07T23:29:52;-2.20;99.90
70475;DHT22;57944;48.722;9.316;2024-01-07T23:32:22;-2.30;99.90
70475;DHT22;57944;48.722;9.316;2024-01-07T23:34:53;-2.20;99.90
70475;DHT22;57944;48.722;9.316;2024-01-07T23:37:23;-2.20;99.90
70475;DHT22;57944;48.722;9.316;2024-01-07T23:39:57;-2.20;99.90
70475;DHT22;57944;48.722;9.316;2024-01-07T23:42:27;-2.20;99.90
70475;DHT22;57944;48.722;9.316;2024-01-07T23:44:58;-2.10;99.90
70475;DHT22;57944;48.722;9.316;2024-01-07T23:47:28;-2.10;99.90
70475;DHT22;57944;48.722;9.316;2024-01-07T23:50:04;-1.90;99.90
70475;DHT22;57944;48.722;9.316;2024-01-07T23:52:35;-1.80;99.90
70475;DHT22;57944;48.722;9.316;2024-01-07T23:55:09;-1.90;99.90
70475;DHT22;57944;48.722;9.316;2024-01-07T23:57:40;-2.00;99.90
